sensor_id;sensor_type;location;lat;lon;timestamp;P1;durP1;ratioP1;P2;durP2;ratioP2
65597;SDS011;52267;51.984;20.956;2024-02-23T00:01:13;9.80;;;8.20;;
65597;SDS011;52267;51.984;20.956;2024-02-23T00:03:40;11.20;;;7.20;;
65597;SDS011;52267;51.984;20.956;2024-02-23T00:06:07;10.70;;;7.70;;
65597;SDS011;52267;51.984;20.956;2024-02-23T00:08:35;10.10;;;6.70;;
65597;SDS011;52267;51.984;20.956;2024-02-23T00:11:02;10.60;;;6.00;;
65597;SDS011;52267;51.984;20.956;2024-02-23T00:13:29;12.10;;;8.80;;
65597;SDS011;52267;51.984;20.956;2024-02-23T00:15:56;10.40;;;8.00;;
65597;SDS011;52267;51.984;20.956;2024-02-23T00:18:23;8.10;;;6.00;;
65597;SDS011;52267;51.984;20.956;2024-02-23T00:20:51;9.50;;;6.60;;
65597;SDS011;52267;51.984;20.956;2024-02-23T00:23:18;10.20;;;6.90;;
65597;SDS011;52267;51.984;20.956;2024-02-23T00:25:46;10.10;;;6.20;;
65597;SDS011;52267;51.984;20.956;2024-02-23T00:28:13;11.70;;;7.70;;
65597;SDS011;52267;51.984;20.956;2024-02-23T00:30:40;8.80;;;6.20;;
65597;SDS011;52267;51.984;20.956;2024-02-23T00:33:06;8.60;;;7.00;;
65597;SDS011;52267;51.984;20.956;2024-02-23T00:35:34;11.60;;;7.50;;
65597;SDS011;52267;51.984;20.956;2024-02-23T00:38:01;11.60;;;8.10;;
65597;SDS011;52267;51.984;20.956;2024-02-23T00:40:28;8.90;;;7.00;;
65597;SDS011;52267;51.984;20.956;2024-02-23T00:42:55;10.10;;;7.30;;
65597;SDS011;52267;51.984;20.956;2024-02-23T00:45:22;11.10;;;8.10;;
65597;SDS011;52267;51.984;20.956;2024-02-23T00:47:49;9.00;;;7.70;;
65597;SDS011;52267;51.984;20.956;2024-02-23T00:50:16;11.90;;;7.30;;
65597;SDS011;52267;51.984;20.956;2024-02-23T00:52:43;11.50;;;8.10;;
65597;SDS011;52267;51.984;20.956;2024-02-23T00:55:10;10.20;;;7.20;;
65597;SDS011;52267;51.984;20.956;2024-02-23T00:57:38;10.10;;;7.70;;
65597;SDS011;52267;51.984;20.956;2024-02-23T01:00:05;10.60;;;7.60;;
65597;SDS011;52267;51.984;20.956;2024-02-23T01:02:33;9.70;;;6.70;;
65597;SDS011;52267;51.984;20.956;2024-02-23T01:05:00;9.70;;;6.90;;
65597;SDS011;52267;51.984;20.956;2024-02-23T01:07:27;8.90;;;7.00;;
65597;SDS011;52267;51.984;20.956;2024-02-23T01:09:54;8.60;;;6.50;;
65597;SDS011;52267;51.984;20.956;2024-02-23T01:12:22;10.50;;;6.70;;
65597;SDS011;52267;51.984;20.956;2024-02-23T01:14:48;10.40;;;7.20;;
65597;SDS011;52267;51.984;20.956;2024-02-23T01:17:16;10.70;;;8.70;;
65597;SDS011;52267;51.984;20.956;2024-02-23T01:19:43;10.90;;;7.60;;
65597;SDS011;52267;51.984;20.956;2024-02-23T01:22:10;11.20;;;7.60;;
65597;SDS011;52267;51.984;20.956;2024-02-23T01:24:38;9.10;;;6.70;;
65597;SDS011;52267;51.984;20.956;2024-02-23T01:27:05;9.20;;;6.40;;
65597;SDS011;52267;51.984;20.956;2024-02-23T01:29:32;8.60;;;6.50;;
65597;SDS011;52267;51.984;20.956;2024-02-23T01:32:02;10.00;;;7.00;;
65597;SDS011;52267;51.984;20.956;2024-02-23T01:34:29;8.70;;;6.50;;
65597;SDS011;52267;51.984;20.956;2024-02-23T01:36:56;9.60;;;5.80;;
65597;SDS011;52267;51.984;20.956;2024-02-23T01:39:23;8.80;;;6.80;;
65597;SDS011;52267;51.984;20.956;2024-02-23T01:41:50;7.90;;;6.40;;
65597;SDS011;52267;51.984;20.956;2024-02-23T01:44:17;10.00;;;7.00;;
65597;SDS011;52267;51.984;20.956;2024-02-23T01:46:44;8.70;;;6.20;;
65597;SDS011;52267;51.984;20.956;2024-02-23T01:49:12;7.90;;;6.00;;
65597;SDS011;52267;51.984;20.956;2024-02-23T01:51:39;7.90;;;6.00;;
65597;SDS011;52267;51.984;20.956;2024-02-23T01:54:07;7.20;;;5.40;;
65597;SDS011;52267;51.984;20.956;2024-02-23T01:56:35;8.70;;;6.40;;
65597;SDS011;52267;51.984;20.956;2024-02-23T01:59:03;10.40;;;6.80;;
65597;SDS011;52267;51.984;20.956;2024-02-23T02:01:31;7.40;;;5.60;;
65597;SDS011;52267;51.984;20.956;2024-02-23T02:03:58;8.30;;;6.70;;
65597;SDS011;52267;51.984;20.956;2024-02-23T02:06:25;8.50;;;6.90;;
65597;SDS011;52267;51.984;20.956;2024-02-23T02:08:53;6.50;;;5.10;;
65597;SDS011;52267;51.984;20.956;2024-02-23T02:11:20;8.70;;;5.80;;
65597;SDS011;52267;51.984;20.956;2024-02-23T02:13:47;7.50;;;5.50;;
65597;SDS011;52267;51.984;20.956;2024-02-23T02:16:14;8.00;;;6.50;;
65597;SDS011;52267;51.984;20.956;2024-02-23T02:18:41;7.70;;;6.10;;
65597;SDS011;52267;51.984;20.956;2024-02-23T02:21:11;7.10;;;5.20;;
65597;SDS011;52267;51.984;20.956;2024-02-23T02:23:38;8.20;;;6.00;;
65597;SDS011;52267;51.984;20.956;2024-02-23T02:26:05;7.70;;;5.50;;
65597;SDS011;52267;51.984;20.956;2024-02-23T02:28:32;7.10;;;5.60;;
65597;SDS011;52267;51.984;20.956;2024-02-23T02:30:59;9.00;;;6.10;;
65597;SDS011;52267;51.984;20.956;2024-02-23T02:33:27;8.20;;;5.70;;
65597;SDS011;52267;51.984;20.956;2024-02-23T02:35:54;8.10;;;5.20;;
65597;SDS011;52267;51.984;20.956;2024-02-23T02:38:21;8.20;;;6.30;;
65597;SDS011;52267;51.984;20.956;2024-02-23T02:40:47;11.10;;;5.10;;
65597;SDS011;52267;51.984;20.956;2024-02-23T02:43:14;7.90;;;5.10;;
65597;SDS011;52267;51.984;20.956;2024-02-23T02:45:41;6.80;;;4.80;;
65597;SDS011;52267;51.984;20.956;2024-02-23T02:48:09;7.70;;;5.40;;
65597;SDS011;52267;51.984;20.956;2024-02-23T02:50:36;8.00;;;5.60;;
65597;SDS011;52267;51.984;20.956;2024-02-23T02:53:03;6.90;;;4.80;;
65597;SDS011;52267;51.984;20.956;2024-02-23T02:55:30;6.40;;;4.90;;
65597;SDS011;52267;51.984;20.956;2024-02-23T02:57:57;6.20;;;4.30;;
65597;SDS011;52267;51.984;20.956;2024-02-23T03:00:24;6.10;;;4.40;;
65597;SDS011;52267;51.984;20.956;2024-02-23T03:02:51;6.90;;;5.10;;
65597;SDS011;52267;51.984;20.956;2024-02-23T03:05:18;7.50;;;4.60;;
65597;SDS011;52267;51.984;20.956;2024-02-23T03:07:45;7.80;;;5.90;;
65597;SDS011;52267;51.984;20.956;2024-02-23T03:10:12;7.60;;;4.70;;
65597;SDS011;52267;51.984;20.956;2024-02-23T03:12:39;8.90;;;6.10;;
65597;SDS011;52267;51.984;20.956;2024-02-23T03:15:07;8.00;;;5.50;;
65597;SDS011;52267;51.984;20.956;2024-02-23T03:17:34;6.60;;;4.70;;
65597;SDS011;52267;51.984;20.956;2024-02-23T03:20:02;6.50;;;4.50;;
65597;SDS011;52267;51.984;20.956;2024-02-23T03:22:32;7.30;;;5.10;;
65597;SDS011;52267;51.984;20.956;2024-02-23T03:24:59;8.70;;;5.10;;
65597;SDS011;52267;51.984;20.956;2024-02-23T03:27:28;7.90;;;5.70;;
65597;SDS011;52267;51.984;20.956;2024-02-23T03:29:56;8.70;;;6.10;;
65597;SDS011;52267;51.984;20.956;2024-02-23T03:32:23;7.60;;;5.80;;
65597;SDS011;52267;51.984;20.956;2024-02-23T03:34:49;7.90;;;5.70;;
65597;SDS011;52267;51.984;20.956;2024-02-23T03:37:16;7.90;;;5.10;;
65597;SDS011;52267;51.984;20.956;2024-02-23T03:39:43;8.00;;;5.30;;
65597;SDS011;52267;51.984;20.956;2024-02-23T03:42:10;9.00;;;5.40;;
65597;SDS011;52267;51.984;20.956;2024-02-23T03:44:37;7.40;;;4.90;;
65597;SDS011;52267;51.984;20.956;2024-02-23T03:47:04;8.40;;;5.60;;
65597;SDS011;52267;51.984;20.956;2024-02-23T03:49:32;7.00;;;4.80;;
65597;SDS011;52267;51.984;20.956;2024-02-23T03:51:59;6.70;;;5.10;;
65597;SDS011;52267;51.984;20.956;2024-02-23T03:54:25;6.90;;;4.80;;
65597;SDS011;52267;51.984;20.956;2024-02-23T03:56:52;7.30;;;5.20;;
65597;SDS011;52267;51.984;20.956;2024-02-23T03:59:19;7.30;;;5.10;;
65597;SDS011;52267;51.984;20.956;2024-02-23T04:01:47;7.50;;;5.30;;
65597;SDS011;52267;51.984;20.956;2024-02-23T04:04:13;8.00;;;5.60;;
65597;SDS011;52267;51.984;20.956;2024-02-23T04:06:41;8.10;;;5.50;;
65597;SDS011;52267;51.984;20.956;2024-02-23T04:09:08;9.40;;;6.20;;
65597;SDS011;52267;51.984;20.956;2024-02-23T04:11:35;7.80;;;5.10;;
65597;SDS011;52267;51.984;20.956;2024-02-23T04:14:02;7.70;;;5.90;;
65597;SDS011;52267;51.984;20.956;2024-02-23T04:16:31;7.70;;;5.50;;
65597;SDS011;52267;51.984;20.956;2024-02-23T04:18:58;7.30;;;5.10;;
65597;SDS011;52267;51.984;20.956;2024-02-23T04:21:26;7.10;;;5.00;;
65597;SDS011;52267;51.984;20.956;2024-02-23T04:23:53;6.60;;;4.30;;
65597;SDS011;52267;51.984;20.956;2024-02-23T04:26:20;5.30;;;3.80;;
65597;SDS011;52267;51.984;20.956;2024-02-23T04:28:47;6.60;;;4.70;;
65597;SDS011;52267;51.984;20.956;2024-02-23T04:31:14;7.60;;;4.40;;
65597;SDS011;52267;51.984;20.956;2024-02-23T04:33:41;6.80;;;5.00;;
65597;SDS011;52267;51.984;20.956;2024-02-23T04:36:08;8.50;;;4.10;;
65597;SDS011;52267;51.984;20.956;2024-02-23T04:38:35;6.30;;;4.10;;
65597;SDS011;52267;51.984;20.956;2024-02-23T04:41:03;9.10;;;5.70;;
65597;SDS011;52267;51.984;20.956;2024-02-23T04:43:31;6.90;;;3.90;;
65597;SDS011;52267;51.984;20.956;2024-02-23T04:45:59;10.10;;;5.40;;
65597;SDS011;52267;51.984;20.956;2024-02-23T04:48:26;7.50;;;4.00;;
65597;SDS011;52267;51.984;20.956;2024-02-23T04:50:53;7.40;;;5.60;;
65597;SDS011;52267;51.984;20.956;2024-02-23T04:53:20;6.40;;;4.80;;
65597;SDS011;52267;51.984;20.956;2024-02-23T04:55:47;6.20;;;4.40;;
65597;SDS011;52267;51.984;20.956;2024-02-23T04:58:14;7.80;;;4.70;;
65597;SDS011;52267;51.984;20.956;2024-02-23T05:00:41;7.70;;;4.50;;
65597;SDS011;52267;51.984;20.956;2024-02-23T05:03:09;7.60;;;4.20;;
65597;SDS011;52267;51.984;20.956;2024-02-23T05:05:36;6.50;;;4.40;;
65597;SDS011;52267;51.984;20.956;2024-02-23T05:08:03;6.40;;;4.10;;
65597;SDS011;52267;51.984;20.956;2024-02-23T05:10:30;6.80;;;4.40;;
65597;SDS011;52267;51.984;20.956;2024-02-23T05:12:57;5.60;;;3.80;;
65597;SDS011;52267;51.984;20.956;2024-02-23T05:15:24;6.80;;;4.10;;
65597;SDS011;52267;51.984;20.956;2024-02-23T05:17:51;5.20;;;3.40;;
65597;SDS011;52267;51.984;20.956;2024-02-23T05:20:18;6.20;;;3.90;;
65597;SDS011;52267;51.984;20.956;2024-02-23T05:22:46;5.30;;;3.80;;
65597;SDS011;52267;51.984;20.956;2024-02-23T05:25:13;7.10;;;4.20;;
65597;SDS011;52267;51.984;20.956;2024-02-23T05:27:40;5.00;;;3.80;;
65597;SDS011;52267;51.984;20.956;2024-02-23T05:30:07;4.70;;;3.20;;
65597;SDS011;52267;51.984;20.956;2024-02-23T05:32:35;6.30;;;3.40;;
65597;SDS011;52267;51.984;20.956;2024-02-23T05:35:02;6.60;;;4.30;;
65597;SDS011;52267;51.984;20.956;2024-02-23T05:37:30;7.00;;;3.60;;
65597;SDS011;52267;51.984;20.956;2024-02-23T05:39:57;5.80;;;4.30;;
65597;SDS011;52267;51.984;20.956;2024-02-23T05:42:26;6.00;;;4.30;;
65597;SDS011;52267;51.984;20.956;2024-02-23T05:44:53;5.40;;;3.70;;
65597;SDS011;52267;51.984;20.956;2024-02-23T05:47:20;6.20;;;4.00;;
65597;SDS011;52267;51.984;20.956;2024-02-23T05:49:48;6.20;;;3.80;;
65597;SDS011;52267;51.984;20.956;2024-02-23T05:52:15;5.20;;;3.10;;
65597;SDS011;52267;51.984;20.956;2024-02-23T05:54:42;7.20;;;3.00;;
65597;SDS011;52267;51.984;20.956;2024-02-23T05:57:09;6.40;;;3.80;;
65597;SDS011;52267;51.984;20.956;2024-02-23T05:59:36;5.70;;;3.60;;
65597;SDS011;52267;51.984;20.956;2024-02-23T06:02:03;5.40;;;3.70;;
65597;SDS011;52267;51.984;20.956;2024-02-23T06:04:30;6.70;;;4.00;;
65597;SDS011;52267;51.984;20.956;2024-02-23T06:06:57;7.00;;;4.60;;
65597;SDS011;52267;51.984;20.956;2024-02-23T06:09:24;6.60;;;5.20;;
65597;SDS011;52267;51.984;20.956;2024-02-23T06:11:51;7.40;;;4.80;;
65597;SDS011;52267;51.984;20.956;2024-02-23T06:14:18;7.90;;;5.10;;
65597;SDS011;52267;51.984;20.956;2024-02-23T06:16:45;7.70;;;4.20;;
65597;SDS011;52267;51.984;20.956;2024-02-23T06:19:12;5.30;;;3.00;;
65597;SDS011;52267;51.984;20.956;2024-02-23T06:21:39;5.00;;;3.50;;
65597;SDS011;52267;51.984;20.956;2024-02-23T06:24:06;6.60;;;3.80;;
65597;SDS011;52267;51.984;20.956;2024-02-23T06:26:35;5.50;;;4.00;;
65597;SDS011;52267;51.984;20.956;2024-02-23T06:29:02;5.40;;;3.60;;
65597;SDS011;52267;51.984;20.956;2024-02-23T06:31:30;6.40;;;2.80;;
65597;SDS011;52267;51.984;20.956;2024-02-23T06:33:57;6.50;;;4.40;;
65597;SDS011;52267;51.984;20.956;2024-02-23T06:36:24;5.40;;;3.60;;
65597;SDS011;52267;51.984;20.956;2024-02-23T06:38:51;7.30;;;4.00;;
65597;SDS011;52267;51.984;20.956;2024-02-23T06:41:18;4.90;;;2.50;;
65597;SDS011;52267;51.984;20.956;2024-02-23T06:43:45;5.90;;;3.90;;
65597;SDS011;52267;51.984;20.956;2024-02-23T06:46:12;5.30;;;3.00;;
65597;SDS011;52267;51.984;20.956;2024-02-23T06:48:39;7.60;;;4.10;;
65597;SDS011;52267;51.984;20.956;2024-02-23T06:51:07;6.40;;;4.20;;
65597;SDS011;52267;51.984;20.956;2024-02-23T06:53:36;5.30;;;3.40;;
65597;SDS011;52267;51.984;20.956;2024-02-23T06:56:03;4.70;;;2.60;;
65597;SDS011;52267;51.984;20.956;2024-02-23T06:58:30;5.70;;;3.40;;
65597;SDS011;52267;51.984;20.956;2024-02-23T07:00:59;11.50;;;4.60;;
65597;SDS011;52267;51.984;20.956;2024-02-23T07:03:27;5.10;;;2.70;;
65597;SDS011;52267;51.984;20.956;2024-02-23T07:05:54;5.60;;;4.10;;
65597;SDS011;52267;51.984;20.956;2024-02-23T07:08:21;5.80;;;3.70;;
65597;SDS011;52267;51.984;20.956;2024-02-23T07:10:48;4.60;;;3.20;;
65597;SDS011;52267;51.984;20.956;2024-02-23T07:13:16;5.80;;;4.20;;
65597;SDS011;52267;51.984;20.956;2024-02-23T07:15:44;6.30;;;4.10;;
65597;SDS011;52267;51.984;20.956;2024-02-23T07:18:11;7.20;;;4.40;;
65597;SDS011;52267;51.984;20.956;2024-02-23T07:20:38;4.90;;;3.00;;
65597;SDS011;52267;51.984;20.956;2024-02-23T07:23:05;3.90;;;2.70;;
65597;SDS011;52267;51.984;20.956;2024-02-23T07:25:33;4.00;;;2.90;;
65597;SDS011;52267;51.984;20.956;2024-02-23T07:28:00;7.70;;;4.50;;
65597;SDS011;52267;51.984;20.956;2024-02-23T07:30:27;6.40;;;4.20;;
65597;SDS011;52267;51.984;20.956;2024-02-23T07:32:54;6.60;;;4.20;;
65597;SDS011;52267;51.984;20.956;2024-02-23T07:35:21;8.50;;;5.00;;
65597;SDS011;52267;51.984;20.956;2024-02-23T07:37:48;7.80;;;5.40;;
65597;SDS011;52267;51.984;20.956;2024-02-23T07:40:15;7.70;;;4.70;;
65597;SDS011;52267;51.984;20.956;2024-02-23T07:42:42;7.40;;;4.60;;
65597;SDS011;52267;51.984;20.956;2024-02-23T07:45:10;7.10;;;4.10;;
65597;SDS011;52267;51.984;20.956;2024-02-23T07:47:37;8.70;;;5.30;;
65597;SDS011;52267;51.984;20.956;2024-02-23T07:50:05;6.90;;;5.00;;
65597;SDS011;52267;51.984;20.956;2024-02-23T07:52:32;6.70;;;5.10;;
65597;SDS011;52267;51.984;20.956;2024-02-23T07:55:00;8.00;;;5.10;;
65597;SDS011;52267;51.984;20.956;2024-02-23T07:57:29;7.20;;;5.10;;
65597;SDS011;52267;51.984;20.956;2024-02-23T07:59:57;9.00;;;5.70;;
65597;SDS011;52267;51.984;20.956;2024-02-23T08:02:25;9.00;;;6.00;;
65597;SDS011;52267;51.984;20.956;2024-02-23T08:04:52;7.80;;;5.60;;
65597;SDS011;52267;51.984;20.956;2024-02-23T08:07:19;6.80;;;5.00;;
65597;SDS011;52267;51.984;20.956;2024-02-23T08:09:46;8.30;;;5.40;;
65597;SDS011;52267;51.984;20.956;2024-02-23T08:12:13;7.50;;;5.70;;
65597;SDS011;52267;51.984;20.956;2024-02-23T08:14:40;7.80;;;5.50;;
65597;SDS011;52267;51.984;20.956;2024-02-23T08:17:08;7.70;;;5.60;;
65597;SDS011;52267;51.984;20.956;2024-02-23T08:19:37;7.30;;;5.80;;
65597;SDS011;52267;51.984;20.956;2024-02-23T08:22:04;7.70;;;5.20;;
65597;SDS011;52267;51.984;20.956;2024-02-23T08:24:31;8.30;;;5.40;;
65597;SDS011;52267;51.984;20.956;2024-02-23T08:26:58;12.60;;;6.90;;
65597;SDS011;52267;51.984;20.956;2024-02-23T08:29:26;8.40;;;6.00;;
65597;SDS011;52267;51.984;20.956;2024-02-23T08:31:53;8.60;;;5.40;;
65597;SDS011;52267;51.984;20.956;2024-02-23T08:34:20;8.30;;;5.90;;
65597;SDS011;52267;51.984;20.956;2024-02-23T08:36:47;9.30;;;6.60;;
65597;SDS011;52267;51.984;20.956;2024-02-23T08:39:15;8.40;;;4.90;;
65597;SDS011;52267;51.984;20.956;2024-02-23T08:41:42;9.60;;;5.40;;
65597;SDS011;52267;51.984;20.956;2024-02-23T08:44:09;7.90;;;5.10;;
65597;SDS011;52267;51.984;20.956;2024-02-23T08:46:36;9.80;;;6.30;;
65597;SDS011;52267;51.984;20.956;2024-02-23T08:49:06;8.20;;;5.40;;
65597;SDS011;52267;51.984;20.956;2024-02-23T08:51:33;10.90;;;8.30;;
65597;SDS011;52267;51.984;20.956;2024-02-23T08:54:00;11.60;;;7.50;;
65597;SDS011;52267;51.984;20.956;2024-02-23T08:56:31;20.80;;;13.10;;
65597;SDS011;52267;51.984;20.956;2024-02-23T08:58:58;14.80;;;9.10;;
65597;SDS011;52267;51.984;20.956;2024-02-23T09:01:25;11.80;;;6.40;;
65597;SDS011;52267;51.984;20.956;2024-02-23T09:03:52;13.10;;;6.60;;
65597;SDS011;52267;51.984;20.956;2024-02-23T09:06:19;8.20;;;5.00;;
65597;SDS011;52267;51.984;20.956;2024-02-23T09:08:47;12.10;;;7.20;;
65597;SDS011;52267;51.984;20.956;2024-02-23T09:11:14;11.10;;;6.30;;
65597;SDS011;52267;51.984;20.956;2024-02-23T09:13:42;14.00;;;6.00;;
65597;SDS011;52267;51.984;20.956;2024-02-23T09:16:09;8.70;;;5.30;;
65597;SDS011;52267;51.984;20.956;2024-02-23T09:18:36;9.40;;;5.90;;
65597;SDS011;52267;51.984;20.956;2024-02-23T09:21:03;8.50;;;6.00;;
65597;SDS011;52267;51.984;20.956;2024-02-23T09:23:30;9.80;;;5.70;;
65597;SDS011;52267;51.984;20.956;2024-02-23T09:25:59;7.20;;;4.80;;
65597;SDS011;52267;51.984;20.956;2024-02-23T09:28:27;11.40;;;6.30;;
65597;SDS011;52267;51.984;20.956;2024-02-23T09:30:56;11.10;;;6.60;;
65597;SDS011;52267;51.984;20.956;2024-02-23T09:33:24;12.20;;;5.90;;
65597;SDS011;52267;51.984;20.956;2024-02-23T09:35:52;11.30;;;6.00;;
65597;SDS011;52267;51.984;20.956;2024-02-23T09:38:19;9.00;;;4.90;;
65597;SDS011;52267;51.984;20.956;2024-02-23T09:40:46;10.30;;;6.40;;
65597;SDS011;52267;51.984;20.956;2024-02-23T09:43:14;12.00;;;6.60;;
65597;SDS011;52267;51.984;20.956;2024-02-23T09:45:42;9.10;;;5.30;;
65597;SDS011;52267;51.984;20.956;2024-02-23T09:48:10;11.40;;;5.50;;
65597;SDS011;52267;51.984;20.956;2024-02-23T09:50:37;7.50;;;4.30;;
65597;SDS011;52267;51.984;20.956;2024-02-23T09:53:05;9.90;;;6.50;;
65597;SDS011;52267;51.984;20.956;2024-02-23T09:55:36;7.90;;;5.10;;
65597;SDS011;52267;51.984;20.956;2024-02-23T09:58:04;8.50;;;5.60;;
65597;SDS011;52267;51.984;20.956;2024-02-23T10:00:34;8.90;;;5.90;;
65597;SDS011;52267;51.984;20.956;2024-02-23T10:03:04;7.90;;;5.20;;
65597;SDS011;52267;51.984;20.956;2024-02-23T10:05:31;9.90;;;6.50;;
65597;SDS011;52267;51.984;20.956;2024-02-23T10:07:58;9.80;;;5.80;;
65597;SDS011;52267;51.984;20.956;2024-02-23T10:10:35;9.50;;;5.40;;
65597;SDS011;52267;51.984;20.956;2024-02-23T10:13:02;8.10;;;5.10;;
65597;SDS011;52267;51.984;20.956;2024-02-23T10:15:32;11.40;;;7.00;;
65597;SDS011;52267;51.984;20.956;2024-02-23T10:17:59;7.50;;;5.80;;
65597;SDS011;52267;51.984;20.956;2024-02-23T10:20:27;10.30;;;6.20;;
65597;SDS011;52267;51.984;20.956;2024-02-23T10:22:54;9.90;;;6.80;;
65597;SDS011;52267;51.984;20.956;2024-02-23T10:25:22;8.50;;;6.00;;
65597;SDS011;52267;51.984;20.956;2024-02-23T10:27:49;8.20;;;5.20;;
65597;SDS011;52267;51.984;20.956;2024-02-23T10:30:16;9.60;;;6.10;;
65597;SDS011;52267;51.984;20.956;2024-02-23T10:32:45;7.80;;;5.60;;
65597;SDS011;52267;51.984;20.956;2024-02-23T10:35:16;12.00;;;5.80;;
65597;SDS011;52267;51.984;20.956;2024-02-23T10:37:43;6.00;;;3.80;;
65597;SDS011;52267;51.984;20.956;2024-02-23T10:40:16;8.30;;;6.20;;
65597;SDS011;52267;51.984;20.956;2024-02-23T10:42:45;9.90;;;6.50;;
65597;SDS011;52267;51.984;20.956;2024-02-23T10:45:19;11.60;;;7.70;;
65597;SDS011;52267;51.984;20.956;2024-02-23T10:47:48;12.10;;;7.40;;
65597;SDS011;52267;51.984;20.956;2024-02-23T10:50:16;12.50;;;8.20;;
65597;SDS011;52267;51.984;20.956;2024-02-23T10:52:46;9.10;;;7.00;;
65597;SDS011;52267;51.984;20.956;2024-02-23T10:55:15;12.30;;;7.70;;
65597;SDS011;52267;51.984;20.956;2024-02-23T10:57:43;12.70;;;6.80;;
65597;SDS011;52267;51.984;20.956;2024-02-23T11:00:11;11.50;;;6.70;;
65597;SDS011;52267;51.984;20.956;2024-02-23T11:02:45;11.60;;;7.70;;
65597;SDS011;52267;51.984;20.956;2024-02-23T11:05:15;9.60;;;6.60;;
65597;SDS011;52267;51.984;20.956;2024-02-23T11:07:46;8.50;;;6.30;;
65597;SDS011;52267;51.984;20.956;2024-02-23T11:10:17;9.10;;;6.50;;
65597;SDS011;52267;51.984;20.956;2024-02-23T11:12:58;12.00;;;8.10;;
65597;SDS011;52267;51.984;20.956;2024-02-23T11:15:28;13.70;;;8.30;;
65597;SDS011;52267;51.984;20.956;2024-02-23T11:17:56;10.90;;;7.20;;
65597;SDS011;52267;51.984;20.956;2024-02-23T11:20:23;11.60;;;8.20;;
65597;SDS011;52267;51.984;20.956;2024-02-23T11:22:52;11.20;;;8.00;;
65597;SDS011;52267;51.984;20.956;2024-02-23T11:25:26;11.60;;;8.50;;
65597;SDS011;52267;51.984;20.956;2024-02-23T11:27:53;13.30;;;9.40;;
65597;SDS011;52267;51.984;20.956;2024-02-23T11:30:21;10.60;;;7.50;;
65597;SDS011;52267;51.984;20.956;2024-02-23T11:32:48;11.40;;;6.90;;
65597;SDS011;52267;51.984;20.956;2024-02-23T11:35:16;10.20;;;7.30;;
65597;SDS011;52267;51.984;20.956;2024-02-23T11:37:47;9.90;;;6.50;;
65597;SDS011;52267;51.984;20.956;2024-02-23T11:40:30;10.40;;;6.60;;
65597;SDS011;52267;51.984;20.956;2024-02-23T11:42:57;8.00;;;5.50;;
65597;SDS011;52267;51.984;20.956;2024-02-23T11:45:30;10.70;;;7.30;;
65597;SDS011;52267;51.984;20.956;2024-02-23T11:47:57;9.20;;;6.50;;
65597;SDS011;52267;51.984;20.956;2024-02-23T11:50:25;9.30;;;6.40;;
65597;SDS011;52267;51.984;20.956;2024-02-23T11:52:53;10.10;;;7.20;;
65597;SDS011;52267;51.984;20.956;2024-02-23T11:55:21;11.40;;;7.70;;
65597;SDS011;52267;51.984;20.956;2024-02-23T11:57:49;15.40;;;9.50;;
65597;SDS011;52267;51.984;20.956;2024-02-23T12:00:17;13.30;;;8.90;;
65597;SDS011;52267;51.984;20.956;2024-02-23T12:02:44;10.90;;;7.80;;
65597;SDS011;52267;51.984;20.956;2024-02-23T12:05:16;10.20;;;7.30;;
65597;SDS011;52267;51.984;20.956;2024-02-23T12:07:43;12.40;;;7.60;;
65597;SDS011;52267;51.984;20.956;2024-02-23T12:10:10;10.30;;;7.30;;
65597;SDS011;52267;51.984;20.956;2024-02-23T12:12:37;10.10;;;7.40;;
65597;SDS011;52267;51.984;20.956;2024-02-23T12:15:06;12.60;;;7.70;;
65597;SDS011;52267;51.984;20.956;2024-02-23T12:17:36;10.30;;;7.60;;
65597;SDS011;52267;51.984;20.956;2024-02-23T12:20:04;12.30;;;7.90;;
65597;SDS011;52267;51.984;20.956;2024-02-23T12:22:34;11.60;;;7.50;;
65597;SDS011;52267;51.984;20.956;2024-02-23T12:25:01;9.00;;;7.10;;
65597;SDS011;52267;51.984;20.956;2024-02-23T12:27:30;11.00;;;7.40;;
65597;SDS011;52267;51.984;20.956;2024-02-23T12:29:57;10.00;;;7.00;;
65597;SDS011;52267;51.984;20.956;2024-02-23T12:32:24;10.00;;;6.60;;
65597;SDS011;52267;51.984;20.956;2024-02-23T12:34:52;10.00;;;7.10;;
65597;SDS011;52267;51.984;20.956;2024-02-23T12:37:19;11.10;;;7.30;;
65597;SDS011;52267;51.984;20.956;2024-02-23T12:39:49;10.00;;;7.40;;
65597;SDS011;52267;51.984;20.956;2024-02-23T12:42:16;10.50;;;7.90;;
65597;SDS011;52267;51.984;20.956;2024-02-23T12:44:44;9.80;;;6.60;;
65597;SDS011;52267;51.984;20.956;2024-02-23T12:47:11;9.10;;;6.70;;
65597;SDS011;52267;51.984;20.956;2024-02-23T12:49:38;10.70;;;7.50;;
65597;SDS011;52267;51.984;20.956;2024-02-23T12:52:05;14.60;;;8.90;;
65597;SDS011;52267;51.984;20.956;2024-02-23T12:54:32;12.00;;;7.60;;
65597;SDS011;52267;51.984;20.956;2024-02-23T12:56:59;11.80;;;8.70;;
65597;SDS011;52267;51.984;20.956;2024-02-23T12:59:27;13.50;;;9.00;;
65597;SDS011;52267;51.984;20.956;2024-02-23T13:01:54;11.90;;;8.60;;
65597;SDS011;52267;51.984;20.956;2024-02-23T13:04:21;16.10;;;11.70;;
65597;SDS011;52267;51.984;20.956;2024-02-23T13:06:48;16.30;;;10.80;;
65597;SDS011;52267;51.984;20.956;2024-02-23T13:09:15;18.00;;;13.00;;
65597;SDS011;52267;51.984;20.956;2024-02-23T13:11:42;30.70;;;21.50;;
65597;SDS011;52267;51.984;20.956;2024-02-23T13:14:09;25.80;;;16.70;;
65597;SDS011;52267;51.984;20.956;2024-02-23T13:16:36;28.80;;;17.80;;
65597;SDS011;52267;51.984;20.956;2024-02-23T13:19:03;36.50;;;22.20;;
65597;SDS011;52267;51.984;20.956;2024-02-23T13:21:30;38.20;;;22.80;;
65597;SDS011;52267;51.984;20.956;2024-02-23T13:23:59;21.00;;;14.80;;
65597;SDS011;52267;51.984;20.956;2024-02-23T13:26:26;14.60;;;10.40;;
65597;SDS011;52267;51.984;20.956;2024-02-23T13:28:53;25.60;;;17.40;;
65597;SDS011;52267;51.984;20.956;2024-02-23T13:31:20;23.20;;;16.40;;
65597;SDS011;52267;51.984;20.956;2024-02-23T13:33:47;14.50;;;10.30;;
65597;SDS011;52267;51.984;20.956;2024-02-23T13:36:14;18.30;;;11.90;;
65597;SDS011;52267;51.984;20.956;2024-02-23T13:38:42;18.60;;;11.70;;
65597;SDS011;52267;51.984;20.956;2024-02-23T13:41:09;17.00;;;11.10;;
65597;SDS011;52267;51.984;20.956;2024-02-23T13:43:36;13.80;;;10.70;;
65597;SDS011;52267;51.984;20.956;2024-02-23T13:46:03;17.70;;;13.20;;
65597;SDS011;52267;51.984;20.956;2024-02-23T13:48:30;15.50;;;11.30;;
65597;SDS011;52267;51.984;20.956;2024-02-23T13:50:58;12.40;;;9.90;;
65597;SDS011;52267;51.984;20.956;2024-02-23T13:53:30;10.20;;;7.80;;
65597;SDS011;52267;51.984;20.956;2024-02-23T13:55:58;10.70;;;7.70;;
65597;SDS011;52267;51.984;20.956;2024-02-23T13:58:27;12.10;;;8.00;;
65597;SDS011;52267;51.984;20.956;2024-02-23T14:00:55;10.60;;;7.90;;
65597;SDS011;52267;51.984;20.956;2024-02-23T14:03:22;10.80;;;8.30;;
65597;SDS011;52267;51.984;20.956;2024-02-23T14:05:49;11.50;;;8.00;;
65597;SDS011;52267;51.984;20.956;2024-02-23T14:08:16;12.70;;;7.80;;
65597;SDS011;52267;51.984;20.956;2024-02-23T14:10:44;11.30;;;8.20;;
65597;SDS011;52267;51.984;20.956;2024-02-23T14:13:12;11.90;;;8.00;;
65597;SDS011;52267;51.984;20.956;2024-02-23T14:15:39;12.60;;;8.40;;
65597;SDS011;52267;51.984;20.956;2024-02-23T14:18:06;10.40;;;8.30;;
65597;SDS011;52267;51.984;20.956;2024-02-23T14:20:33;11.60;;;8.70;;
65597;SDS011;52267;51.984;20.956;2024-02-23T14:23:00;11.80;;;8.00;;
65597;SDS011;52267;51.984;20.956;2024-02-23T14:25:27;12.60;;;8.90;;
65597;SDS011;52267;51.984;20.956;2024-02-23T14:27:55;12.70;;;10.50;;
65597;SDS011;52267;51.984;20.956;2024-02-23T14:30:22;13.20;;;9.50;;